Time;durP1;ratioP1;P1;durP2;ratioP2;P2;SDS_P1;SDS_P2;PMS_P1;PMS_P2;Temp;Humidity;BMP_temperature;BMP_pressure;BME280_temperature;BME280_humidity;BME280_pressure;Samples;Min_cycle;Max_cycle;Signal;HPM_P1;HPM_P2
2023/07/17 00:00:24;;;;;;;11.73;6.97;;;;;;;18.41;97.93;96306.47;2090234;28;20461;-59
2023/07/17 00:01:25;;;;;;;10.20;6.68;;;;;;;18.44;98.70;96313.28;2090162;28;20056;-59
2023/07/17 00:02:26;;;;;;;11.27;6.63;;;;;;;18.45;98.61;96317.59;2090504;28;20056;-59
2023/07/17 00:03:27;;;;;;;9.35;6.75;;;;;;;18.40;98.61;96307.41;2090581;28;20068;-59
2023/07/17 00:04:28;;;;;;;11.80;6.40;;;;;;;18.46;98.13;96319.28;2090376;28;20057;-59
2023/07/17 00:05:30;;;;;;;8.15;5.78;;;;;;;18.49;98.43;96326.94;2090221;28;20396;-59
2023/07/17 00:06:31;;;;;;;7.72;6.03;;;;;;;18.52;98.04;96326.72;2090481;28;20049;-59
2023/07/17 00:07:32;;;;;;;7.88;6.00;;;;;;;18.42;98.42;96321.31;2090695;28;20044;-58
2023/07/17 00:08:33;;;;;;;10.02;6.35;;;;;;;18.55;98.41;96339.66;2090157;28;20397;-59
2023/07/17 00:09:34;;;;;;;8.07;6.55;;;;;;;18.57;98.29;96336.91;2090458;28;20040;-59
2023/07/17 00:10:38;;;;;;;6.72;5.63;;;;;;;18.57;98.45;96342.97;2090598;28;20053;-59
2023/07/17 00:11:39;;;;;;;10.98;6.05;;;;;;;18.57;98.75;96342.16;2090456;28;20080;-59
2023/07/17 00:12:40;;;;;;;9.57;5.93;;;;;;;18.56;98.30;96343.13;2089859;28;20060;-59
2023/07/17 00:13:41;;;;;;;9.68;5.82;;;;;;;18.58;97.81;96335.94;2089799;28;20048;-59
2023/07/17 00:14:42;;;;;;;10.05;6.00;;;;;;;18.56;97.98;96329.97;2090090;28;20061;-59
2023/07/17 00:15:44;;;;;;;9.02;5.97;;;;;;;18.56;97.71;96325.53;2090420;28;20461;-68
2023/07/17 00:16:45;;;;;;;8.15;5.97;;;;;;;18.55;97.41;96312.50;2090441;28;20045;-68
2023/07/17 00:17:46;;;;;;;8.80;5.68;;;;;;;18.56;97.52;96306.31;2090198;28;20134;-67
2023/07/17 00:18:47;;;;;;;9.85;6.10;;;;;;;18.45;97.27;96273.75;2090352;28;20049;-68
2023/07/17 00:19:55;;;;;;;10.05;6.20;;;;;;;18.57;98.22;96285.13;2090118;28;20225;-68
2023/07/17 00:20:56;;;;;;;12.32;6.30;;;;;;;18.56;98.68;96278.19;2089715;28;20049;-68
2023/07/17 00:21:58;;;;;;;11.02;6.10;;;;;;;18.58;98.63;96271.03;2090568;28;20057;-68
2023/07/17 00:22:59;;;;;;;10.93;6.65;;;;;;;18.58;98.90;96255.25;2090158;28;20049;-68
2023/07/17 00:24:00;;;;;;;10.98;6.38;;;;;;;18.59;99.01;96264.81;2090281;28;20048;-68
2023/07/17 00:25:01;;;;;;;8.75;6.00;;;;;;;18.56;98.60;96256.34;2090528;28;20053;-68
2023/07/17 00:26:02;;;;;;;8.15;6.15;;;;;;;18.55;99.27;96259.91;2090131;28;20044;-68
2023/07/17 00:27:04;;;;;;;9.18;6.25;;;;;;;18.55;98.69;96273.03;2090188;28;20049;-68
2023/07/17 00:28:05;;;;;;;8.20;5.97;;;;;;;18.55;98.34;96278.31;2090372;28;20045;-68
2023/07/17 00:29:19;;;;;;;8.60;5.68;;;;;;;18.55;98.35;96281.78;2089621;28;20056;-68
2023/07/17 00:30:20;;;;;;;8.38;6.15;;;;;;;18.60;98.20;96284.06;2089180;28;20065;-61
2023/07/17 00:31:21;;;;;;;9.88;6.20;;;;;;;18.53;98.28;96273.19;2089334;28;20069;-60
2023/07/17 00:32:22;;;;;;;10.73;6.40;;;;;;;18.56;98.93;96286.09;2089367;28;20048;-61
2023/07/17 00:33:23;;;;;;;10.90;6.30;;;;;;;18.52;98.83;96290.75;2089441;28;20065;-60
2023/07/17 00:34:24;;;;;;;8.35;6.38;;;;;;;18.50;98.63;96294.44;2090035;28;20057;-60
2023/07/17 00:35:26;;;;;;;10.27;6.38;;;;;;;18.46;99.65;96296.44;2090048;28;20056;-58
2023/07/17 00:36:27;;;;;;;12.05;6.88;;;;;;;18.38;99.44;96287.44;2089764;28;20424;-58
2023/07/17 00:37:29;;;;;;;10.90;7.28;;;;;;;18.32;99.95;96293.16;2089446;28;20072;-58
2023/07/17 00:38:30;;;;;;;14.40;6.78;;;;;;;18.36;99.32;96302.50;2089516;28;20546;-58
2023/07/17 00:39:32;;;;;;;10.70;6.80;;;;;;;18.36;100.00;96310.38;2089361;28;20056;-58
2023/07/17 00:40:34;;;;;;;8.50;7.10;;;;;;;18.29;100.00;96292.44;2089615;28;20049;-58
2023/07/17 00:41:35;;;;;;;12.80;6.95;;;;;;;18.33;100.00;96305.34;2088963;28;20512;-59
2023/07/17 00:42:36;;;;;;;11.15;7.68;;;;;;;18.25;100.00;96288.34;2088690;28;20055;-59
2023/07/17 00:43:37;;;;;;;10.63;7.28;;;;;;;18.33;100.00;96302.72;2088936;28;20059;-59
2023/07/17 00:44:38;;;;;;;11.25;7.18;;;;;;;18.32;100.00;96303.69;2089257;28;20056;-58
2023/07/17 00:45:41;;;;;;;9.43;7.00;;;;;;;18.23;100.00;96290.25;2089474;28;20056;-59
2023/07/17 00:46:42;;;;;;;9.27;7.43;;;;;;;18.29;99.94;96296.88;2081604;28;20137;-58
2023/07/17 00:47:43;;;;;;;9.25;6.00;;;;;;;18.28;99.57;96306.53;2073100;28;20038;-59
2023/07/17 00:48:44;;;;;;;8.30;6.50;;;;;;;18.27;99.82;96304.84;2080385;28;20104;-58
2023/07/17 00:49:47;;;;;;;11.82;7.00;;;;;;;18.18;100.00;96292.38;2081165;28;20044;-59
2023/07/17 00:50:51;;;;;;;9.27;6.57;;;;;;;18.25;99.58;96309.38;2089766;28;20479;-58
2023/07/17 00:51:52;;;;;;;10.43;6.85;;;;;;;18.26;100.00;96324.22;2089861;28;20057;-59
2023/07/17 00:52:53;;;;;;;10.38;7.57;;;;;;;18.25;100.00;96327.78;2089378;28;20048;-59
2023/07/17 00:53:54;;;;;;;10.93;6.88;;;;;;;18.24;100.00;96331.38;2088950;28;20527;-58
2023/07/17 00:54:56;;;;;;;9.70;6.50;;;;;;;18.20;100.00;96323.81;2089804;28;20053;-58
2023/07/17 00:55:57;;;;;;;9.55;6.65;;;;;;;18.24;100.00;96327.91;2089919;28;20370;-59
2023/07/17 00:57:00;;;;;;;9.60;7.53;;;;;;;18.27;100.00;96325.03;2089357;28;20068;-58
2023/07/17 00:58:01;;;;;;;8.73;6.93;;;;;;;18.29;100.00;96315.25;2089345;28;20045;-59
2023/07/17 00:59:03;;;;;;;10.75;6.95;;;;;;;18.32;100.00;96314.19;2080998;28;20362;-58
2023/07/17 01:00:06;;;;;;;8.77;6.38;;;;;;;18.23;100.00;96303.41;2081579;28;20049;-59
2023/07/17 01:01:07;;;;;;;9.40;6.05;;;;;;;18.34;100.00;96320.19;2081818;28;20038;-58
2023/07/17 01:02:08;;;;;;;9.15;6.82;;;;;;;18.30;100.00;96309.03;2081171;28;20045;-58
2023/07/17 01:03:09;;;;;;;10.02;6.90;;;;;;;18.38;100.00;96321.63;2080861;28;20053;-58
2023/07/17 01:04:10;;;;;;;14.18;7.28;;;;;;;18.38;100.00;96326.88;2080754;28;20053;-59
2023/07/17 01:05:13;;;;;;;13.63;7.65;;;;;;;18.38;100.00;96319.84;2089182;28;20485;-59
2023/07/17 01:06:14;;;;;;;11.15;6.78;;;;;;;18.37;100.00;96318.16;2089779;28;20404;-59
2023/07/17 01:07:15;;;;;;;10.60;6.65;;;;;;;18.35;100.00;96309.56;2089373;28;20057;-59
2023/07/17 01:08:16;;;;;;;11.60;6.72;;;;;;;18.35;100.00;96301.66;2089182;28;20049;-59
2023/07/17 01:09:20;;;;;;;11.32;7.35;;;;;;;18.37;100.00;96299.75;2089294;28;20037;-58
2023/07/17 01:10:21;;;;;;;8.70;6.70;;;;;;;18.38;100.00;96295.34;2081281;28;20071;-59
2023/07/17 01:11:22;;;;;;;11.50;7.38;;;;;;;18.37;99.88;96289.25;2089280;28;20057;-59
2023/07/17 01:12:24;;;;;;;11.48;7.68;;;;;;;18.38;99.91;96287.44;2088096;28;20053;-59
2023/07/17 01:13:25;;;;;;;10.65;7.20;;;;;;;18.38;99.89;96284.81;2089176;28;20520;-60
2023/07/17 01:14:28;;;;;;;9.50;6.50;;;;;;;18.30;100.00;96275.69;2090025;28;20179;-59
2023/07/17 01:15:29;;;;;;;10.23;7.57;;;;;;;18.38;99.96;96292.72;2089150;28;20033;-59
2023/07/17 01:16:30;;;;;;;9.65;6.95;;;;;;;18.39;99.90;96295.25;2088848;28;20377;-59
2023/07/17 01:17:31;;;;;;;12.18;6.82;;;;;;;18.37;100.00;96289.25;2089479;28;20044;-59
2023/07/17 01:18:32;;;;;;;10.98;6.80;;;;;;;18.33;99.94;96287.78;2089245;28;20045;-59
2023/07/17 01:19:33;;;;;;;9.98;6.43;;;;;;;18.35;99.40;96290.31;2089350;28;20521;-60
2023/07/17 01:20:34;;;;;;;12.32;6.55;;;;;;;18.33;99.87;96282.53;2089373;28;20051;-59
2023/07/17 01:21:36;;;;;;;10.70;6.97;;;;;;;18.23;99.59;96271.00;2089477;28;20062;-60
2023/07/17 01:22:59;;;;;;;11.27;7.20;;;;;;;18.30;100.00;96280.97;2072708;28;20465;-59
2023/07/17 01:24:00;;;;;;;12.73;7.45;;;;;;;18.26;99.60;96276.91;2079421;28;20056;-59
2023/07/17 01:25:03;;;;;;;12.30;7.38;;;;;;;18.20;100.00;96272.09;2091231;28;20055;-59
2023/07/17 01:26:17;;;;;;;11.10;7.55;;;;;;;18.25;100.00;96288.34;2090625;28;20517;-59
2023/07/17 01:27:18;;;;;;;9.15;6.38;;;;;;;18.20;99.99;96287.88;2091286;28;20049;-59
2023/07/17 01:28:19;;;;;;;13.55;7.35;;;;;;;18.27;100.00;96299.59;2091515;28;20049;-59
2023/07/17 01:29:22;;;;;;;11.60;7.40;;;;;;;18.28;100.00;96306.53;2091214;28;20053;-59
2023/07/17 01:30:23;;;;;;;12.13;8.48;;;;;;;18.27;100.00;96320.63;2091387;28;20378;-59
2023/07/17 01:31:25;;;;;;;10.02;7.43;;;;;;;18.27;100.00;96335.56;2091022;28;20057;-59
2023/07/17 01:32:26;;;;;;;8.98;6.88;;;;;;;18.26;99.83;96344.41;2090738;28;20057;-60
2023/07/17 01:33:27;;;;;;;11.52;7.68;;;;;;;18.28;100.00;96353.88;2090692;28;20079;-59
2023/07/17 01:34:31;;;;;;;10.43;7.60;;;;;;;18.29;100.00;96360.78;2090576;28;20053;-60
2023/07/17 01:35:32;;;;;;;11.10;7.53;;;;;;;18.35;100.00;96363.94;2090457;28;20045;-59
2023/07/17 01:36:33;;;;;;;13.65;7.85;;;;;;;18.37;100.00;96370.75;2090400;28;20210;-59
2023/07/17 01:37:35;;;;;;;12.77;7.82;;;;;;;18.37;100.00;96381.28;2091756;28;20063;-60
2023/07/17 01:38:37;;;;;;;11.27;8.02;;;;;;;18.38;100.00;96382.09;2091104;28;20057;-59
2023/07/17 01:39:38;;;;;;;12.35;7.00;;;;;;;18.41;100.00;96389.75;2090681;28;20040;-59
2023/07/17 01:40:39;;;;;;;12.75;7.90;;;;;;;18.36;100.00;96384.00;2090681;28;20053;-59
2023/07/17 01:41:40;;;;;;;12.50;7.43;;;;;;;18.34;100.00;96384.13;2091547;28;20469;-60
2023/07/17 01:42:41;;;;;;;14.32;7.22;;;;;;;18.33;99.71;96381.59;2091363;28;20072;-59
2023/07/17 01:43:42;;;;;;;11.55;8.27;;;;;;;18.31;100.00;96384.34;2091070;28;20053;-59
2023/07/17 01:44:43;;;;;;;13.48;7.78;;;;;;;18.25;100.00;96375.09;2091547;28;20060;-59
2023/07/17 01:45:45;;;;;;;11.57;7.57;;;;;;;18.22;99.92;96370.06;2090351;28;20071;-58
2023/07/17 01:46:46;;;;;;;13.63;7.70;;;;;;;18.14;100.00;96366.31;2082425;28;20072;-59
2023/07/17 01:47:47;;;;;;;10.10;6.80;;;;;;;18.13;100.00;96362.84;2090454;28;20053;-58
2023/07/17 01:48:48;;;;;;;10.45;6.88;;;;;;;18.08;99.92;96363.16;2091415;28;20049;-58
2023/07/17 01:49:49;;;;;;;11.98;7.75;;;;;;;18.00;100.00;96346.28;2090676;28;20076;-58
2023/07/17 01:50:50;;;;;;;11.82;7.13;;;;;;;18.00;100.00;96357.63;2082354;28;20052;-58
2023/07/17 01:51:51;;;;;;;14.23;7.75;;;;;;;17.99;100.00;96360.34;2090304;28;20060;-57
2023/07/17 01:52:52;;;;;;;10.50;7.20;;;;;;;17.97;100.00;96364.88;2091178;28;20052;-57
2023/07/17 01:53:54;;;;;;;10.90;7.35;;;;;;;17.93;100.00;96363.41;2091204;28;20044;-57
2023/07/17 01:54:55;;;;;;;10.32;7.22;;;;;;;17.79;100.00;96352.09;2091217;28;20053;-58
2023/07/17 01:55:56;;;;;;;11.80;7.03;;;;;;;17.85;100.00;96363.94;2091311;28;20061;-58
2023/07/17 01:56:57;;;;;;;12.15;8.00;;;;;;;17.83;100.00;96364.06;2090287;28;20052;-58
2023/07/17 01:57:58;;;;;;;11.85;7.90;;;;;;;17.84;100.00;96359.66;2082321;28;20494;-58
2023/07/17 01:58:59;;;;;;;11.13;8.45;;;;;;;17.82;100.00;96344.00;2082318;28;20052;-58
2023/07/17 02:00:00;;;;;;;11.45;7.85;;;;;;;17.78;100.00;96323.28;2090325;28;20056;-57
2023/07/17 02:01:03;;;;;;;11.02;8.70;;;;;;;17.78;100.00;96324.13;2082501;28;20056;-57
2023/07/17 02:02:05;;;;;;;13.23;8.32;;;;;;;17.81;100.00;96318.69;2082254;28;20068;-57
2023/07/17 02:03:06;;;;;;;13.50;9.25;;;;;;;17.74;100.00;96306.88;2090572;28;20064;-58
2023/07/17 02:04:08;;;;;;;12.10;7.85;;;;;;;17.77;100.00;96317.16;2090546;28;20048;-57
2023/07/17 02:05:10;;;;;;;15.25;8.90;;;;;;;17.77;100.00;96324.22;2082531;28;20441;-58
2023/07/17 02:06:11;;;;;;;11.43;7.60;;;;;;;17.73;100.00;96331.50;2081678;28;20076;-58
2023/07/17 02:07:12;;;;;;;12.93;8.40;;;;;;;17.69;100.00;96335.25;2090199;28;20467;-57
2023/07/17 02:08:13;;;;;;;11.00;8.10;;;;;;;17.68;100.00;96333.59;2090918;28;20044;-58
2023/07/17 02:09:14;;;;;;;11.27;7.80;;;;;;;17.64;100.00;96324.22;2090308;28;20060;-58
2023/07/17 02:10:15;;;;;;;10.60;8.68;;;;;;;17.63;100.00;96319.94;2091197;28;20393;-58
2023/07/17 02:11:19;;;;;;;13.35;7.60;;;;;;;17.60;100.00;96314.91;2091149;28;20049;-57
2023/07/17 02:12:20;;;;;;;12.40;8.48;;;;;;;17.59;100.00;96324.59;2091178;28;20056;-58
2023/07/17 02:13:21;;;;;;;11.15;7.72;;;;;;;17.59;100.00;96334.25;2091007;28;20048;-58
2023/07/17 02:14:22;;;;;;;12.75;8.10;;;;;;;17.47;100.00;96330.69;2089684;28;20076;-58
2023/07/17 02:15:24;;;;;;;10.13;7.88;;;;;;;17.50;100.00;96348.00;2082420;28;20116;-58
2023/07/17 02:16:25;;;;;;;11.18;7.75;;;;;;;17.51;100.00;96341.78;2082081;28;20049;-58
2023/07/17 02:17:26;;;;;;;12.23;8.13;;;;;;;17.52;100.00;96348.75;2082452;28;20076;-58
2023/07/17 02:18:29;;;;;;;10.63;8.63;;;;;;;17.55;100.00;96348.53;2090142;28;20518;-57
2023/07/17 02:19:30;;;;;;;11.85;8.70;;;;;;;17.53;100.00;96340.75;2090340;28;20059;-58
2023/07/17 02:20:31;;;;;;;10.77;7.90;;;;;;;17.50;100.00;96337.50;2089917;28;20071;-58
2023/07/17 02:21:32;;;;;;;10.27;7.15;;;;;;;17.47;100.00;96343.81;2090763;28;20049;-58
2023/07/17 02:22:34;;;;;;;10.35;5.97;;;;;;;17.39;100.00;96339.06;2089374;28;20068;-58
2023/07/17 02:23:35;;;;;;;9.45;6.40;;;;;;;17.26;100.00;96325.13;2090441;28;20084;-57
2023/07/17 02:24:36;;;;;;;9.75;6.10;;;;;;;17.29;100.00;96343.28;2091143;28;20049;-58
2023/07/17 02:25:38;;;;;;;11.73;7.20;;;;;;;17.23;100.00;96350.75;2091001;28;20041;-58
2023/07/17 02:26:39;;;;;;;10.10;6.53;;;;;;;17.14;100.00;96346.97;2090346;28;20048;-58
2023/07/17 02:27:40;;;;;;;11.23;6.40;;;;;;;17.05;100.00;96344.94;2082231;28;20057;-58
2023/07/17 02:28:41;;;;;;;11.55;6.95;;;;;;;16.94;100.00;96349.13;2090345;28;20052;-58
2023/07/17 02:29:42;;;;;;;10.15;6.15;;;;;;;16.88;99.56;96351.34;2089988;28;20060;-58
2023/07/17 02:30:43;;;;;;;8.52;6.00;;;;;;;16.83;98.52;96345.56;2090165;28;20056;-57
2023/07/17 02:31:45;;;;;;;7.50;5.82;;;;;;;16.79;99.16;96337.06;2089918;28;20424;-57
2023/07/17 02:32:46;;;;;;;7.05;5.85;;;;;;;16.73;99.07;96334.78;2090259;28;20047;-57
2023/07/17 02:33:47;;;;;;;13.50;5.43;;;;;;;16.62;98.64;96326.81;2082456;28;20068;-57
2023/07/17 02:34:48;;;;;;;9.20;5.80;;;;;;;16.66;98.35;96344.03;2090595;28;20053;-57
2023/07/17 02:35:49;;;;;;;10.57;6.15;;;;;;;16.63;98.46;96346.84;2090107;28;20041;-57
2023/07/17 02:36:52;;;;;;;11.60;5.78;;;;;;;16.46;98.17;96333.03;2089805;28;20057;-57
2023/07/17 02:37:53;;;;;;;11.48;7.57;;;;;;;16.56;98.93;96359.50;2082109;28;20056;-57
2023/07/17 02:38:54;;;;;;;10.68;7.10;;;;;;;16.53;100.00;96352.69;2089812;28;20057;-57
2023/07/17 02:39:56;;;;;;;13.05;7.70;;;;;;;16.50;100.00;96355.50;2090249;28;20049;-57
2023/07/17 02:40:57;;;;;;;17.60;8.40;;;;;;;16.48;100.00;96361.78;2090185;28;20045;-57
2023/07/17 02:41:58;;;;;;;12.35;7.35;;;;;;;16.45;100.00;96369.84;2090855;28;20036;-58
2023/07/17 02:42:59;;;;;;;12.73;6.72;;;;;;;16.28;100.00;96350.81;2090892;28;20049;-57
2023/07/17 02:44:00;;;;;;;10.13;6.40;;;;;;;16.35;100.00;96372.22;2089730;28;20067;-59
2023/07/17 02:45:03;;;;;;;13.18;6.93;;;;;;;16.32;100.00;96367.19;2089679;28;20095;-58
2023/07/17 02:46:04;;;;;;;11.50;6.38;;;;;;;16.22;100.00;96363.47;2090148;28;20049;-58
2023/07/17 02:47:08;;;;;;;9.25;6.50;;;;;;;16.23;99.89;96380.88;2090096;28;20045;-59
2023/07/17 02:48:09;;;;;;;12.43;6.75;;;;;;;16.22;100.00;96382.63;2090370;28;20412;-58
2023/07/17 02:49:13;;;;;;;7.80;5.55;;;;;;;16.17;100.00;96383.88;2090337;28;20182;-58
2023/07/17 02:50:14;;;;;;;13.55;6.50;;;;;;;16.19;100.00;96388.06;2082605;28;20053;-59
2023/07/17 02:51:15;;;;;;;12.10;6.75;;;;;;;16.20;100.00;96376.69;2081910;28;20033;-59
2023/07/17 02:52:17;;;;;;;11.77;6.07;;;;;;;16.23;100.00;96360.75;2090270;28;20045;-59
2023/07/17 02:53:18;;;;;;;13.13;5.70;;;;;;;16.25;100.00;96345.78;2090793;28;20132;-58
2023/07/17 02:54:20;;;;;;;15.95;7.72;;;;;;;16.21;100.00;96339.03;2090697;28;20049;-58
2023/07/17 02:55:22;;;;;;;15.95;6.50;;;;;;;16.19;99.36;96335.69;2090772;28;20358;-58
2023/07/17 02:56:23;;;;;;;16.35;7.50;;;;;;;16.19;99.99;96340.91;2090892;28;20049;-58
2023/07/17 02:57:24;;;;;;;17.83;8.05;;;;;;;16.18;99.53;96339.25;2090609;28;20049;-58
2023/07/17 02:58:26;;;;;;;13.13;6.65;;;;;;;16.18;100.00;96349.72;2089952;28;20053;-58
2023/07/17 02:59:27;;;;;;;12.75;7.05;;;;;;;16.14;100.00;96357.88;2081368;28;20058;-58
2023/07/17 03:00:28;;;;;;;13.20;6.78;;;;;;;16.14;99.64;96352.63;2089808;28;20060;-58
2023/07/17 03:01:29;;;;;;;15.70;7.90;;;;;;;16.15;100.00;96354.34;2090610;28;20496;-58
2023/07/17 03:02:30;;;;;;;12.20;5.82;;;;;;;16.17;100.00;96357.66;2091077;28;20045;-58
2023/07/17 03:03:31;;;;;;;13.10;7.30;;;;;;;16.10;100.00;96352.84;2090273;28;20040;-57
2023/07/17 03:04:32;;;;;;;13.02;7.03;;;;;;;16.06;100.00;96350.50;2090173;28;20499;-59
2023/07/17 03:05:34;;;;;;;13.25;7.80;;;;;;;15.98;100.00;96350.13;2091400;28;20151;-58
2023/07/17 03:06:36;;;;;;;15.15;7.35;;;;;;;15.85;100.00;96329.13;2090303;28;20033;-57
2023/07/17 03:07:39;;;;;;;11.68;7.85;;;;;;;16.00;100.00;96350.88;2089829;28;20052;-57
2023/07/17 03:08:40;;;;;;;15.65;8.57;;;;;;;15.98;100.00;96343.13;2082174;28;20060;-57
2023/07/17 03:09:41;;;;;;;13.00;7.82;;;;;;;15.97;100.00;96346.69;2082007;28;20251;-57
2023/07/17 03:10:42;;;;;;;14.05;8.35;;;;;;;15.97;100.00;96338.81;2081777;28;20050;-58
2023/07/17 03:11:43;;;;;;;15.40;8.38;;;;;;;15.97;100.00;96336.22;2090268;28;20144;-57
2023/07/17 03:12:44;;;;;;;13.68;8.13;;;;;;;15.98;100.00;96337.03;2090625;28;20041;-57
2023/07/17 03:13:47;;;;;;;14.15;8.25;;;;;;;15.95;100.00;96337.25;2089947;28;20045;-58
2023/07/17 03:14:48;;;;;;;14.13;8.73;;;;;;;15.95;100.00;96334.63;2081699;28;20087;-58
2023/07/17 03:15:49;;;;;;;14.85;9.13;;;;;;;15.96;100.00;96328.44;2090099;28;20374;-57
2023/07/17 03:16:50;;;;;;;13.35;8.73;;;;;;;15.95;100.00;96326.75;2089867;28;20051;-58
2023/07/17 03:17:51;;;;;;;12.85;8.32;;;;;;;15.94;100.00;96320.69;2089751;28;20064;-57
2023/07/17 03:18:52;;;;;;;19.23;9.43;;;;;;;15.92;100.00;96324.34;2089780;28;20391;-57
2023/07/17 03:19:53;;;;;;;14.52;8.40;;;;;;;15.90;100.00;96318.34;2090037;28;20045;-58
2023/07/17 03:20:55;;;;;;;15.40;8.73;;;;;;;15.88;100.00;96327.16;2090163;28;20053;-57
2023/07/17 03:21:56;;;;;;;15.50;8.77;;;;;;;15.87;100.00;96322.00;2089055;28;20125;-58
2023/07/17 03:22:57;;;;;;;14.32;9.20;;;;;;;15.87;100.00;96325.47;2090203;28;20061;-58
2023/07/17 03:23:58;;;;;;;18.27;10.48;;;;;;;15.86;100.00;96326.41;2090776;28;20095;-57
2023/07/17 03:24:59;;;;;;;20.90;11.07;;;;;;;15.84;100.00;96330.91;2090412;28;20515;-58
2023/07/17 03:26:00;;;;;;;19.95;10.90;;;;;;;15.82;100.00;96335.41;2089778;28;20131;-59
2023/07/17 03:27:02;;;;;;;16.55;10.93;;;;;;;15.79;100.00;96337.34;2089885;28;20060;-58
2023/07/17 03:28:03;;;;;;;23.38;11.07;;;;;;;15.75;100.00;96341.97;2090592;28;20074;-58
2023/07/17 03:29:05;;;;;;;21.23;9.65;;;;;;;15.77;100.00;96350.56;2089412;28;20075;-57
2023/07/17 03:30:08;;;;;;;23.55;11.63;;;;;;;15.80;100.00;96354.78;2081605;28;20062;-57
2023/07/17 03:31:10;;;;;;;24.38;12.45;;;;;;;15.75;100.00;96330.66;2081734;28;20053;-57
2023/07/17 03:32:11;;;;;;;28.73;12.68;;;;;;;15.91;100.00;96357.56;2089900;28;20056;-57
2023/07/17 03:33:12;;;;;;;21.63;11.00;;;;;;;15.96;100.00;96355.50;2097606;28;20532;-57
2023/07/17 03:34:13;;;;;;;33.42;10.85;;;;;;;15.97;100.00;96357.16;2090457;28;20052;-57
2023/07/17 03:35:14;;;;;;;17.23;10.25;;;;;;;16.01;100.00;96361.28;2090423;28;20061;-57
2023/07/17 03:36:15;;;;;;;16.85;10.90;;;;;;;16.03;100.00;96366.41;2090575;28;20064;-57
2023/07/17 03:37:18;;;;;;;19.15;10.32;;;;;;;16.05;100.00;96367.16;2089832;28;20053;-57
2023/07/17 03:38:19;;;;;;;13.10;8.90;;;;;;;16.10;100.00;96367.72;2089872;28;20045;-58
2023/07/17 03:39:20;;;;;;;16.38;9.02;;;;;;;16.14;100.00;96371.81;2089746;28;20045;-59
2023/07/17 03:40:21;;;;;;;14.75;8.90;;;;;;;16.16;100.00;96374.34;2089429;28;20489;-59
2023/07/17 03:41:22;;;;;;;14.73;9.55;;;;;;;16.17;100.00;96383.88;2089781;28;20049;-59
2023/07/17 03:42:23;;;;;;;13.60;8.15;;;;;;;16.17;100.00;96389.13;2081785;28;20057;-59
2023/07/17 03:43:25;;;;;;;15.15;8.00;;;;;;;16.19;100.00;96397.72;2081298;28;20057;-59
2023/07/17 03:44:26;;;;;;;13.18;7.95;;;;;;;16.19;100.00;96388.06;2081519;28;20041;-58
2023/07/17 03:45:27;;;;;;;14.00;7.38;;;;;;;16.18;100.00;96396.06;2081967;28;20500;-58
2023/07/17 03:46:29;;;;;;;13.70;7.85;;;;;;;16.13;100.00;96391.09;2081735;28;20053;-58
2023/07/17 03:47:30;;;;;;;13.00;7.55;;;;;;;16.15;100.00;96396.25;2080609;28;20050;-58
2023/07/17 03:48:32;;;;;;;14.82;8.15;;;;;;;16.16;100.00;96393.50;2081742;28;20068;-58
2023/07/17 03:49:35;;;;;;;12.45;7.35;;;;;;;16.17;100.00;96395.22;2081424;28;20056;-58
2023/07/17 03:50:37;;;;;;;13.55;8.82;;;;;;;16.04;100.00;96365.50;2089651;28;20491;-58
2023/07/17 03:51:38;;;;;;;15.95;7.82;;;;;;;16.21;100.00;96395.84;2089383;28;20045;-58
2023/07/17 03:52:40;;;;;;;13.18;8.73;;;;;;;16.21;100.00;96391.44;2089609;28;20464;-57
2023/07/17 03:53:42;;;;;;;12.15;8.00;;;;;;;16.19;100.00;96398.56;2081201;28;20121;-58
2023/07/17 03:54:43;;;;;;;17.10;8.43;;;;;;;16.18;100.00;96396.88;2073472;28;20413;-58
2023/07/17 03:55:44;;;;;;;15.10;7.10;;;;;;;16.17;100.00;96410.94;2081540;28;20057;-59
2023/07/17 03:56:46;;;;;;;16.58;7.28;;;;;;;16.17;100.00;96400.47;2081536;28;20052;-58
2023/07/17 03:57:47;;;;;;;11.25;7.30;;;;;;;16.16;100.00;96405.78;2081262;28;20045;-58
2023/07/17 03:58:48;;;;;;;15.25;6.90;;;;;;;16.15;100.00;96418.03;2089835;28;20048;-58
2023/07/17 03:59:51;;;;;;;12.27;6.90;;;;;;;16.17;100.00;96420.56;2081111;28;20049;-58
2023/07/17 04:00:56;;;;;;;10.98;7.70;;;;;;;16.12;100.00;96425.22;2089584;28;20053;-58
2023/07/17 04:02:05;;;;;;;15.10;8.68;;;;;;;16.14;100.00;96420.75;2089613;28;20049;-58
2023/07/17 04:03:06;;;;;;;12.45;8.20;;;;;;;16.17;100.00;96433.66;2081364;28;20053;-58
2023/07/17 04:04:15;;;;;;;15.10;8.52;;;;;;;16.19;100.00;96447.50;2082464;28;20057;-58
2023/07/17 04:05:16;;;;;;;11.13;7.35;;;;;;;16.17;100.00;96452.84;2081285;28;20521;-58
2023/07/17 04:06:17;;;;;;;14.13;8.07;;;;;;;16.17;100.00;96457.22;2082276;28;20053;-57
2023/07/17 04:07:19;;;;;;;14.73;7.82;;;;;;;16.11;100.00;96450.59;2089213;28;20075;-57
2023/07/17 04:08:20;;;;;;;12.25;8.00;;;;;;;16.20;100.00;96462.28;2089275;28;20401;-57
2023/07/17 04:09:22;;;;;;;16.55;8.10;;;;;;;16.23;100.00;96449.00;2088944;28;20053;-57
2023/07/17 04:10:23;;;;;;;13.60;8.45;;;;;;;16.26;100.00;96440.94;2090168;28;20041;-58
2023/07/17 04:11:24;;;;;;;14.73;8.75;;;;;;;16.30;100.00;96438.06;2089591;28;20056;-58
2023/07/17 04:12:27;;;;;;;11.93;8.32;;;;;;;16.31;100.00;96444.13;2081149;28;20050;-58
2023/07/17 04:13:28;;;;;;;12.00;8.77;;;;;;;16.35;100.00;96452.63;2089213;28;20045;-57
2023/07/17 04:14:30;;;;;;;13.07;8.25;;;;;;;16.36;100.00;96449.06;2089823;28;20052;-57
2023/07/17 04:15:34;;;;;;;13.60;7.70;;;;;;;16.37;100.00;96438.50;2089720;28;20045;-57
2023/07/17 04:16:36;;;;;;;14.52;8.20;;;;;;;16.39;100.00;96444.50;2073501;28;20065;-57
2023/07/17 04:17:37;;;;;;;13.48;7.53;;;;;;;16.40;100.00;96434.84;2081448;28;20096;-57
2023/07/17 04:18:38;;;;;;;9.65;6.95;;;;;;;16.38;100.00;96450.66;2089696;28;20063;-57
2023/07/17 04:19:40;;;;;;;17.88;7.03;;;;;;;16.34;100.00;96443.09;2081269;28;20049;-57
2023/07/17 04:20:41;;;;;;;10.95;5.85;;;;;;;16.28;100.00;96455.66;2081324;28;20057;-58
2023/07/17 04:21:43;;;;;;;9.35;6.43;;;;;;;16.26;100.00;96451.44;2080883;28;20068;-57
2023/07/17 04:22:44;;;;;;;11.65;6.47;;;;;;;16.28;100.00;96452.19;2080470;28;20057;-58
2023/07/17 04:23:48;;;;;;;13.38;7.07;;;;;;;16.25;100.00;96453.22;2089334;28;20037;-58
2023/07/17 04:24:52;;;;;;;13.15;6.60;;;;;;;16.21;100.00;96446.47;2089468;28;20048;-58
2023/07/17 04:25:53;;;;;;;11.98;6.80;;;;;;;16.19;100.00;96443.09;2089413;28;20140;-58
2023/07/17 04:26:57;;;;;;;13.98;7.55;;;;;;;16.13;100.00;96438.25;2088377;28;20415;-58
2023/07/17 04:27:58;;;;;;;11.32;7.53;;;;;;;16.16;100.00;96438.06;2081367;28;20041;-58
2023/07/17 04:28:59;;;;;;;12.02;7.40;;;;;;;16.19;100.00;96439.66;2081354;28;20045;-56
2023/07/17 04:30:00;;;;;;;16.98;8.63;;;;;;;16.20;100.00;96433.47;2081462;28;20050;-58
2023/07/17 04:31:03;;;;;;;16.08;8.73;;;;;;;16.19;100.00;96430.00;2089608;28;20059;-58
2023/07/17 04:32:04;;;;;;;12.02;8.35;;;;;;;16.20;100.00;96434.31;2080858;28;20053;-58
2023/07/17 04:33:05;;;;;;;14.93;8.60;;;;;;;16.23;100.00;96422.81;2080864;28;20058;-58
2023/07/17 04:34:07;;;;;;;13.60;8.75;;;;;;;16.22;100.00;96434.22;2081404;28;20076;-58
2023/07/17 04:35:08;;;;;;;12.85;9.43;;;;;;;16.20;100.00;96436.06;2081479;28;20064;-58
2023/07/17 04:36:12;;;;;;;13.88;8.88;;;;;;;16.20;100.00;96436.06;2081355;28;20049;-59
2023/07/17 04:37:13;;;;;;;14.15;9.98;;;;;;;16.21;100.00;96433.38;2089317;28;20063;-58
2023/07/17 04:38:14;;;;;;;13.25;9.32;;;;;;;16.23;100.00;96433.28;2088890;28;20061;-58
2023/07/17 04:39:16;;;;;;;10.88;8.63;;;;;;;16.17;100.00;96431.03;2081608;28;20057;-58
2023/07/17 04:40:17;;;;;;;15.95;9.65;;;;;;;16.24;100.00;96451.53;2089308;28;20044;-58
2023/07/17 04:41:21;;;;;;;16.17;8.65;;;;;;;16.21;100.00;96453.50;2089356;28;20512;-58
2023/07/17 04:42:23;;;;;;;11.32;7.97;;;;;;;16.18;100.00;96445.84;2089107;28;20103;-57
2023/07/17 04:43:24;;;;;;;11.65;8.68;;;;;;;16.25;100.00;96455.84;2089281;28;20063;-56
2023/07/17 04:44:25;;;;;;;14.13;8.95;;;;;;;16.26;100.00;96462.75;2089309;28;20516;-57